Time;durP1;ratioP1;P1;durP2;ratioP2;P2;SDS_P1;SDS_P2;PMS_P1;PMS_P2;Temp;Humidity;BMP_temperature;BMP_pressure;BME280_temperature;BME280_humidity;BME280_pressure;Samples;Min_cycle;Max_cycle;Signal;HPM_P1;HPM_P2
2022/05/08 00:01:19;;;;;;;;;;;12.10;99.90;;;;;;5085917;28;19920;-67
2022/05/08 00:03:47;;;;;;;;;;;12.10;99.90;;;;;;5085957;28;19921;-67
2022/05/08 00:06:14;;;;;;;;;;;12.10;99.90;;;;;;5085121;28;20010;-67
2022/05/08 00:08:40;;;;;;;;;;;12.00;99.90;;;;;;5085574;28;19920;-67
2022/05/08 00:11:07;;;;;;;;;;;11.90;99.90;;;;;;5085436;28;20207;-68
2022/05/08 00:13:35;;;;;;;;;;;11.80;99.90;;;;;;5081508;28;19927;-67
2022/05/08 00:16:02;;;;;;;;;;;11.80;99.90;;;;;;5064931;28;19928;-67
2022/05/08 00:18:28;;;;;;;;;;;11.70;99.90;;;;;;5074921;28;19927;-67
2022/05/08 00:20:56;;;;;;;;;;;11.70;99.90;;;;;;5085443;28;19935;-67
2022/05/08 00:23:23;;;;;;;;;;;11.50;99.90;;;;;;5085608;28;20271;-67
2022/05/08 00:25:50;;;;;;;;;;;11.60;99.90;;;;;;5084485;28;19920;-67
2022/05/08 00:28:16;;;;;;;;;;;11.50;99.90;;;;;;5085320;28;19920;-67
2022/05/08 00:30:43;;;;;;;;;;;11.40;99.90;;;;;;5067752;28;19987;-67
2022/05/08 00:33:09;;;;;;;;;;;11.40;99.90;;;;;;5065475;28;19927;-67
2022/05/08 00:35:36;;;;;;;;;;;11.30;99.90;;;;;;5064415;28;20135;-66
2022/05/08 00:38:04;;;;;;;;;;;11.30;99.90;;;;;;5064916;28;19921;-66
2022/05/08 00:40:35;;;;;;;;;;;11.30;99.90;;;;;;5065083;28;20115;-67
2022/05/08 00:43:20;;;;;;;;;;;11.30;99.90;;;;;;5064131;28;19925;-66
2022/05/08 00:45:47;;;;;;;;;;;11.20;99.90;;;;;;5062251;28;19921;-67
2022/05/08 00:48:13;;;;;;;;;;;11.20;99.90;;;;;;5065326;28;19921;-66
2022/05/08 00:50:40;;;;;;;;;;;11.20;99.90;;;;;;5064731;28;19927;-66
2022/05/08 00:53:08;;;;;;;;;;;11.20;99.90;;;;;;5064727;28;20238;-67
2022/05/08 00:55:34;;;;;;;;;;;11.10;99.90;;;;;;5064107;28;19921;-68
2022/05/08 00:58:02;;;;;;;;;;;11.00;99.90;;;;;;5064739;28;19967;-67
2022/05/08 01:00:28;;;;;;;;;;;11.00;99.90;;;;;;5066115;28;19980;-68
2022/05/08 01:02:57;;;;;;;;;;;11.00;99.90;;;;;;5084607;28;19920;-67
2022/05/08 01:05:24;;;;;;;;;;;11.00;99.90;;;;;;5084038;28;19921;-69
2022/05/08 01:07:50;;;;;;;;;;;11.00;99.90;;;;;;5084709;28;19920;-67
2022/05/08 01:10:18;;;;;;;;;;;10.90;99.90;;;;;;5084565;28;19927;-68
2022/05/08 01:12:45;;;;;;;;;;;10.80;99.90;;;;;;5084353;28;19927;-67
2022/05/08 01:15:15;;;;;;;;;;;10.70;99.90;;;;;;5082251;28;19958;-67
2022/05/08 01:17:42;;;;;;;;;;;10.70;99.90;;;;;;5063799;28;19920;-66
2022/05/08 01:20:09;;;;;;;;;;;10.70;99.90;;;;;;5064419;28;19921;-66
2022/05/08 01:22:37;;;;;;;;;;;10.60;99.90;;;;;;5064349;28;19920;-65
2022/05/08 01:25:04;;;;;;;;;;;10.50;99.90;;;;;;5064138;28;19921;-66
2022/05/08 01:27:31;;;;;;;;;;;10.50;99.90;;;;;;5063880;28;19928;-66
2022/05/08 01:29:58;;;;;;;;;;;10.50;99.90;;;;;;5074348;28;19920;-67
2022/05/08 01:32:24;;;;;;;;;;;10.50;99.90;;;;;;5083844;28;19927;-66
2022/05/08 01:34:51;;;;;;;;;;;10.50;99.90;;;;;;5082595;28;19946;-66
2022/05/08 01:37:17;;;;;;;;;;;10.50;99.90;;;;;;5083210;28;19920;-67
2022/05/08 01:39:45;;;;;;;;;;;10.50;99.90;;;;;;5084171;28;19942;-66
2022/05/08 01:42:12;;;;;;;;;;;10.50;99.90;;;;;;5083859;28;19927;-66
2022/05/08 01:44:39;;;;;;;;;;;10.50;99.90;;;;;;5074283;28;19936;-68
2022/05/08 01:49:47;;;;;;;;;;;10.40;99.90;;;;;;5030525;28;19970;-66
2022/05/08 01:52:13;;;;;;;;;;;10.40;99.90;;;;;;5063671;28;20082;-66
2022/05/08 01:54:40;;;;;;;;;;;10.40;99.90;;;;;;5063226;28;19984;-69
2022/05/08 01:57:08;;;;;;;;;;;10.40;99.90;;;;;;5062976;28;19920;-67
2022/05/08 01:59:34;;;;;;;;;;;10.40;99.90;;;;;;5075960;28;19926;-66
2022/05/08 02:02:01;;;;;;;;;;;10.30;99.90;;;;;;5067366;28;19984;-66
2022/05/08 02:04:28;;;;;;;;;;;10.30;99.90;;;;;;5063635;28;19920;-66
2022/05/08 02:06:54;;;;;;;;;;;10.30;99.90;;;;;;5062853;28;19927;-67
2022/05/08 02:09:21;;;;;;;;;;;10.20;99.90;;;;;;5063754;28;19921;-66
2022/05/08 02:11:47;;;;;;;;;;;10.20;99.90;;;;;;5059979;28;19921;-66
2022/05/08 02:14:15;;;;;;;;;;;10.10;99.90;;;;;;5063395;28;19921;-66
2022/05/08 02:16:42;;;;;;;;;;;10.10;99.90;;;;;;5066504;28;19927;-66
2022/05/08 02:19:09;;;;;;;;;;;10.10;99.90;;;;;;5063779;28;19929;-66
2022/05/08 02:21:35;;;;;;;;;;;10.10;99.90;;;;;;5063327;28;19983;-66
2022/05/08 02:24:03;;;;;;;;;;;10.10;99.90;;;;;;5062400;28;20232;-65
2022/05/08 02:26:30;;;;;;;;;;;10.00;99.90;;;;;;5062369;28;19928;-65
2022/05/08 02:28:56;;;;;;;;;;;10.00;99.90;;;;;;5074368;28;19984;-68
2022/05/08 02:31:24;;;;;;;;;;;10.00;99.90;;;;;;5075427;28;19929;-66
2022/05/08 02:33:51;;;;;;;;;;;10.00;99.90;;;;;;5082964;28;19927;-67
2022/05/08 02:36:19;;;;;;;;;;;10.00;99.90;;;;;;5082846;28;20000;-66
2022/05/08 02:38:45;;;;;;;;;;;10.00;99.90;;;;;;5081556;28;19970;-67
2022/05/08 02:41:12;;;;;;;;;;;10.00;99.90;;;;;;5080681;28;19921;-65
2022/05/08 02:43:38;;;;;;;;;;;10.00;99.90;;;;;;5083050;28;19926;-66
2022/05/08 02:46:05;;;;;;;;;;;9.90;99.90;;;;;;5082492;28;20230;-66
2022/05/08 02:48:33;;;;;;;;;;;9.90;99.90;;;;;;5077180;28;19920;-67
2022/05/08 02:50:59;;;;;;;;;;;9.90;99.90;;;;;;5063056;28;19927;-67
2022/05/08 02:53:26;;;;;;;;;;;9.90;99.90;;;;;;5052612;28;19921;-65
2022/05/08 02:58:36;;;;;;;;;;;9.80;99.90;;;;;;5043016;28;19927;-66
2022/05/08 03:01:05;;;;;;;;;;;9.80;99.90;;;;;;5043014;28;19921;-66
2022/05/08 03:03:33;;;;;;;;;;;9.70;99.90;;;;;;5042897;28;20093;-66
2022/05/08 03:05:59;;;;;;;;;;;9.70;99.90;;;;;;5062019;28;19987;-66
2022/05/08 03:08:26;;;;;;;;;;;9.70;99.90;;;;;;5066696;28;19928;-67
2022/05/08 03:13:37;;;;;;;;;;;9.60;99.90;;;;;;5066739;28;19962;-65
2022/05/08 03:16:04;;;;;;;;;;;9.60;99.90;;;;;;5065831;28;19927;-67
2022/05/08 03:18:31;;;;;;;;;;;9.50;99.90;;;;;;5066501;28;19921;-66
2022/05/08 03:20:59;;;;;;;;;;;9.50;99.90;;;;;;5066736;28;19928;-66
2022/05/08 03:23:25;;;;;;;;;;;9.40;99.90;;;;;;5066707;28;20089;-66
2022/05/08 03:25:52;;;;;;;;;;;9.40;99.90;;;;;;5052790;28;19944;-67
2022/05/08 03:28:18;;;;;;;;;;;9.30;99.90;;;;;;5046405;28;19927;-68
2022/05/08 03:30:45;;;;;;;;;;;9.30;99.90;;;;;;5046476;28;20116;-67
2022/05/08 03:33:12;;;;;;;;;;;9.30;99.90;;;;;;5046234;28;20205;-66
2022/05/08 03:35:39;;;;;;;;;;;9.30;99.90;;;;;;5045578;28;19921;-67
2022/05/08 03:38:08;;;;;;;;;;;9.30;99.90;;;;;;5052091;28;19920;-67
2022/05/08 03:40:35;;;;;;;;;;;9.30;99.90;;;;;;5066196;28;19920;-68
2022/05/08 03:43:02;;;;;;;;;;;9.30;99.90;;;;;;5066232;28;20093;-66
2022/05/08 03:45:29;;;;;;;;;;;9.30;99.90;;;;;;5065521;28;20236;-68
2022/05/08 03:47:56;;;;;;;;;;;9.30;99.90;;;;;;5066324;28;19928;-66
2022/05/08 03:50:23;;;;;;;;;;;9.20;99.90;;;;;;5066130;28;19925;-65
2022/05/08 03:52:50;;;;;;;;;;;9.20;99.90;;;;;;5059756;28;19920;-66
2022/05/08 03:55:18;;;;;;;;;;;9.10;99.90;;;;;;5065285;28;19929;-66
2022/05/08 03:57:44;;;;;;;;;;;9.10;99.90;;;;;;5065931;28;19983;-66
2022/05/08 04:00:12;;;;;;;;;;;9.10;99.90;;;;;;5065803;28;19927;-66
2022/05/08 04:02:39;;;;;;;;;;;9.10;99.90;;;;;;5065730;28;19927;-66
2022/05/08 04:05:06;;;;;;;;;;;9.10;99.90;;;;;;5065613;28;19924;-67
2022/05/08 04:07:33;;;;;;;;;;;9.10;99.90;;;;;;5076004;28;19927;-67
2022/05/08 04:10:00;;;;;;;;;;;9.10;99.90;;;;;;5085768;28;19943;-68
2022/05/08 04:12:28;;;;;;;;;;;9.10;99.90;;;;;;5085679;28;19921;-66
2022/05/08 04:14:54;;;;;;;;;;;9.10;99.90;;;;;;5085335;28;19926;-66
2022/05/08 04:17:21;;;;;;;;;;;9.10;99.90;;;;;;5085028;28;19942;-66
2022/05/08 04:19:48;;;;;;;;;;;9.10;99.90;;;;;;5085505;28;19920;-67
2022/05/08 04:24:58;;;;;;;;;;;9.10;99.90;;;;;;5067385;28;19978;-68
2022/05/08 04:27:25;;;;;;;;;;;9.10;99.90;;;;;;5064707;28;20116;-66
2022/05/08 04:29:53;;;;;;;;;;;9.10;99.90;;;;;;5066079;28;19920;-66
2022/05/08 04:32:20;;;;;;;;;;;9.10;99.90;;;;;;5065518;28;20230;-67
2022/05/08 04:34:46;;;;;;;;;;;9.10;99.90;;;;;;5065197;28;19927;-68
2022/05/08 04:37:13;;;;;;;;;;;9.10;99.90;;;;;;5061343;28;19921;-67
2022/05/08 04:39:39;;;;;;;;;;;9.10;99.90;;;;;;5065136;28;20120;-67
2022/05/08 04:42:06;;;;;;;;;;;9.20;99.90;;;;;;5065227;28;19928;-66
2022/05/08 04:44:33;;;;;;;;;;;9.20;99.90;;;;;;5064767;28;19927;-67
2022/05/08 04:47:01;;;;;;;;;;;9.20;99.90;;;;;;5064431;28;19928;-66
2022/05/08 04:49:29;;;;;;;;;;;9.20;99.90;;;;;;5064711;28;20208;-66
2022/05/08 04:51:55;;;;;;;;;;;9.30;99.90;;;;;;5064903;28;19921;-67
2022/05/08 04:54:23;;;;;;;;;;;9.40;99.90;;;;;;5081416;23;19996;-68
2022/05/08 04:56:49;;;;;;;;;;;9.40;99.90;;;;;;5074947;28;19974;-68
2022/05/08 04:59:16;;;;;;;;;;;9.40;99.90;;;;;;5098431;28;19920;-68
2022/05/08 05:01:42;;;;;;;;;;;9.40;99.90;;;;;;5104958;28;19926;-69
2022/05/08 05:04:10;;;;;;;;;;;9.40;99.90;;;;;;5086248;28;19994;-68
2022/05/08 05:06:37;;;;;;;;;;;9.40;99.90;;;;;;5083981;28;20211;-68
2022/05/08 05:09:03;;;;;;;;;;;9.40;99.90;;;;;;5084192;28;20096;-69
2022/05/08 05:11:30;;;;;;;;;;;9.50;99.90;;;;;;5084691;28;20155;-68
2022/05/08 05:13:57;;;;;;;;;;;9.50;99.90;;;;;;5084466;28;19920;-68
2022/05/08 05:16:23;;;;;;;;;;;9.60;99.90;;;;;;5083789;28;19920;-68
2022/05/08 05:18:50;;;;;;;;;;;9.60;99.90;;;;;;5084308;28;19921;-69
2022/05/08 05:21:18;;;;;;;;;;;9.70;99.90;;;;;;5084534;28;19927;-69
2022/05/08 05:23:44;;;;;;;;;;;9.80;99.90;;;;;;5083567;28;20212;-69
2022/05/08 05:26:11;;;;;;;;;;;9.80;99.90;;;;;;5068244;28;19984;-69
2022/05/08 05:28:37;;;;;;;;;;;9.80;99.90;;;;;;5063792;28;19927;-69
2022/05/08 05:31:04;;;;;;;;;;;9.80;99.90;;;;;;5064133;28;19921;-69
2022/05/08 05:33:31;;;;;;;;;;;9.90;99.90;;;;;;5064042;28;20255;-69
2022/05/08 05:35:57;;;;;;;;;;;9.90;99.90;;;;;;5064247;28;19978;-69
2022/05/08 05:38:25;;;;;;;;;;;10.00;99.90;;;;;;5081681;28;19954;-70
2022/05/08 05:40:52;;;;;;;;;;;10.10;99.90;;;;;;5084018;28;19928;-69
2022/05/08 05:43:18;;;;;;;;;;;10.10;99.90;;;;;;5083971;28;19920;-69
2022/05/08 05:45:45;;;;;;;;;;;10.20;99.90;;;;;;5083227;28;19920;-70
2022/05/08 05:48:10;;;;;;;;;;;10.10;99.90;;;;;;5083711;28;19921;-68
2022/05/08 05:50:37;;;;;;;;;;;10.20;99.90;;;;;;5083886;28;19979;-69
2022/05/08 05:53:04;;;;;;;;;;;10.10;99.90;;;;;;5083873;28;19920;-69
2022/05/08 05:55:32;;;;;;;;;;;10.20;99.90;;;;;;5083300;28;19921;-69
2022/05/08 05:57:58;;;;;;;;;;;10.20;99.90;;;;;;5083719;28;19943;-69
2022/05/08 06:00:25;;;;;;;;;;;10.30;99.90;;;;;;5083620;28;19920;-69
2022/05/08 06:02:51;;;;;;;;;;;10.30;99.90;;;;;;5083527;28;19924;-68
2022/05/08 06:05:18;;;;;;;;;;;10.30;99.90;;;;;;5082659;28;19920;-69
2022/05/08 06:07:44;;;;;;;;;;;10.30;99.90;;;;;;5083609;28;20208;-69
2022/05/08 06:10:12;;;;;;;;;;;10.30;99.90;;;;;;5083553;28;19995;-69
2022/05/08 06:12:40;;;;;;;;;;;10.30;99.90;;;;;;5083535;28;19992;-69
2022/05/08 06:15:08;;;;;;;;;;;10.40;99.90;;;;;;5083383;28;20092;-69
2022/05/08 06:17:35;;;;;;;;;;;10.40;99.90;;;;;;5083188;28;19920;-69
2022/05/08 06:20:01;;;;;;;;;;;10.50;99.90;;;;;;5082971;28;20226;-69
2022/05/08 06:22:28;;;;;;;;;;;10.50;99.90;;;;;;5083092;28;19928;-69
2022/05/08 06:24:55;;;;;;;;;;;10.60;99.90;;;;;;5083098;28;19928;-69
2022/05/08 06:27:21;;;;;;;;;;;10.70;99.90;;;;;;5082790;28;19928;-69
2022/05/08 06:29:49;;;;;;;;;;;10.80;99.90;;;;;;5083243;28;19920;-69
2022/05/08 06:32:16;;;;;;;;;;;10.90;99.90;;;;;;5083569;28;19982;-69
2022/05/08 06:34:42;;;;;;;;;;;11.00;99.90;;;;;;5082746;28;19920;-69
2022/05/08 06:37:09;;;;;;;;;;;11.10;99.90;;;;;;5082559;28;19920;-68
2022/05/08 06:39:37;;;;;;;;;;;11.20;99.90;;;;;;5083536;28;19950;-69
2022/05/08 06:42:04;;;;;;;;;;;11.40;99.90;;;;;;5087651;28;20050;-69
2022/05/08 06:44:31;;;;;;;;;;;11.40;99.90;;;;;;5087604;28;19928;-68
2022/05/08 06:46:59;;;;;;;;;;;11.50;99.90;;;;;;5087007;28;19920;-69
2022/05/08 06:49:26;;;;;;;;;;;11.60;99.90;;;;;;5085801;28;19928;-68
2022/05/08 06:51:52;;;;;;;;;;;11.60;99.90;;;;;;5087575;28;19920;-68
2022/05/08 06:54:19;;;;;;;;;;;11.70;99.90;;;;;;5087021;28;19921;-68
2022/05/08 06:56:46;;;;;;;;;;;11.90;99.90;;;;;;5086265;28;20149;-68
2022/05/08 07:02:00;;;;;;;;;;;12.20;99.90;;;;;;5055000;28;19931;-68
2022/05/08 07:04:27;;;;;;;;;;;12.40;99.90;;;;;;5086089;28;20116;-68
2022/05/08 07:06:54;;;;;;;;;;;12.50;99.90;;;;;;5085764;28;19921;-69
2022/05/08 07:09:20;;;;;;;;;;;12.70;99.90;;;;;;5086801;28;20108;-68
2022/05/08 07:11:47;;;;;;;;;;;12.90;99.90;;;;;;5086605;28;19920;-68
2022/05/08 07:14:14;;;;;;;;;;;13.00;99.90;;;;;;5086212;28;20211;-68
2022/05/08 07:16:41;;;;;;;;;;;13.20;99.90;;;;;;5085791;28;19920;-68
2022/05/08 07:19:09;;;;;;;;;;;13.30;99.90;;;;;;5084311;28;19928;-68
2022/05/08 07:21:36;;;;;;;;;;;13.40;99.90;;;;;;5085179;28;19924;-68
2022/05/08 07:24:03;;;;;;;;;;;13.50;99.90;;;;;;5076119;28;19920;-68
2022/05/08 07:26:30;;;;;;;;;;;13.70;99.90;;;;;;5084818;28;19927;-69
2022/05/08 07:28:56;;;;;;;;;;;13.80;99.90;;;;;;5086247;28;20111;-69
2022/05/08 07:31:24;;;;;;;;;;;13.90;99.90;;;;;;5085979;28;19921;-68
2022/05/08 07:36:12;;;;;;;;;;;13.90;99.90;;;;;;5085914;28;19966;-68
2022/05/08 07:36:38;;;;;;;;;;;14.10;99.90;;;;;;5084957;28;19922;-68
2022/05/08 07:39:05;;;;;;;;;;;14.20;99.90;;;;;;5086164;28;19921;-68
2022/05/08 07:41:31;;;;;;;;;;;14.30;99.90;;;;;;5085606;28;20230;-68
2022/05/08 07:43:58;;;;;;;;;;;14.40;99.90;;;;;;5085898;28;19920;-69
2022/05/08 07:46:25;;;;;;;;;;;14.50;99.90;;;;;;5085266;28;19921;-69
2022/05/08 07:48:51;;;;;;;;;;;14.60;99.90;;;;;;5086159;28;19920;-68
2022/05/08 07:51:18;;;;;;;;;;;14.70;99.90;;;;;;5085348;28;19920;-69
2022/05/08 07:53:46;;;;;;;;;;;14.80;99.90;;;;;;5082961;28;20162;-68
2022/05/08 07:56:12;;;;;;;;;;;14.90;99.90;;;;;;5084148;28;19920;-68
2022/05/08 07:58:39;;;;;;;;;;;15.00;99.90;;;;;;5083526;28;19979;-68
2022/05/08 08:01:06;;;;;;;;;;;15.20;99.90;;;;;;5071416;28;19928;-69
2022/05/08 08:03:33;;;;;;;;;;;15.30;99.90;;;;;;5076316;28;20111;-68
2022/05/08 08:06:01;;;;;;;;;;;15.30;99.90;;;;;;5077716;28;19920;-69
2022/05/08 08:08:28;;;;;;;;;;;15.30;99.90;;;;;;5085612;28;19927;-69
2022/05/08 08:10:59;;;;;;;;;;;15.40;99.90;;;;;;5082722;28;19921;-68
2022/05/08 08:13:26;;;;;;;;;;;15.40;99.90;;;;;;5085104;28;19950;-68
2022/05/08 08:15:53;;;;;;;;;;;15.50;99.90;;;;;;5084357;28;19921;-68
2022/05/08 08:18:20;;;;;;;;;;;15.60;99.90;;;;;;5085156;28;19927;-69
2022/05/08 08:20:47;;;;;;;;;;;15.60;99.90;;;;;;5084660;28;20115;-68
2022/05/08 08:23:13;;;;;;;;;;;15.70;99.90;;;;;;5085320;28;19920;-69
2022/05/08 08:25:40;;;;;;;;;;;15.70;99.90;;;;;;5084669;28;20126;-69
2022/05/08 08:28:08;;;;;;;;;;;15.80;99.90;;;;;;5085219;28;19920;-69
2022/05/08 08:30:36;;;;;;;;;;;15.90;99.90;;;;;;5070613;28;19920;-69
2022/05/08 08:33:03;;;;;;;;;;;15.90;99.90;;;;;;5067048;28;19928;-69
2022/05/08 08:35:30;;;;;;;;;;;16.00;99.90;;;;;;5081819;28;20143;-68
2022/05/08 08:37:56;;;;;;;;;;;16.10;99.90;;;;;;5084919;28;19921;-69
2022/05/08 08:40:23;;;;;;;;;;;16.20;99.90;;;;;;5074051;28;19925;-68
2022/05/08 08:42:50;;;;;;;;;;;16.30;99.90;;;;;;5073640;28;19921;-70
2022/05/08 08:48:05;;;;;;;;;;;16.40;99.90;;;;;;5064586;28;19966;-69
2022/05/08 08:50:32;;;;;;;;;;;16.40;99.90;;;;;;5079724;28;19948;-68
2022/05/08 08:52:59;;;;;;;;;;;16.50;99.90;;;;;;5079310;28;19927;-68
2022/05/08 08:55:26;;;;;;;;;;;16.50;99.90;;;;;;5064066;28;19921;-68
2022/05/08 08:57:52;;;;;;;;;;;16.60;99.90;;;;;;5050597;28;20085;-68
2022/05/08 09:00:21;;;;;;;;;;;16.70;99.90;;;;;;5044483;28;19927;-68
2022/05/08 09:02:48;;;;;;;;;;;16.80;99.90;;;;;;5054786;28;19927;-68
2022/05/08 09:05:15;;;;;;;;;;;16.80;99.90;;;;;;5064071;28;19921;-68
2022/05/08 09:07:43;;;;;;;;;;;16.90;99.90;;;;;;5062577;28;19921;-69
2022/05/08 09:10:10;;;;;;;;;;;16.90;99.90;;;;;;5054334;28;19927;-69
2022/05/08 09:12:37;;;;;;;;;;;17.00;99.90;;;;;;5044705;28;19928;-67
2022/05/08 09:15:24;;;;;;;;;;;17.10;99.90;;;;;;5055069;28;19935;-65
2022/05/08 09:17:51;;;;;;;;;;;17.20;99.90;;;;;;5062695;28;19921;-63
2022/05/08 09:20:29;;;;;;;;;;;17.30;99.90;;;;;;5063950;28;19921;-65
2022/05/08 09:22:59;;;;;;;;;;;17.30;99.90;;;;;;5062794;28;19959;-66
2022/05/08 09:25:43;;;;;;;;;;;17.40;99.90;;;;;;5061882;28;19936;-66
2022/05/08 09:28:10;;;;;;;;;;;17.50;99.90;;;;;;5058648;28;19935;-66
2022/05/08 09:30:52;;;;;;;;;;;17.50;99.90;;;;;;5055042;28;19953;-66
2022/05/08 09:33:26;;;;;;;;;;;17.50;99.90;;;;;;5055306;28;19927;-67
2022/05/08 09:35:52;;;;;;;;;;;17.50;99.90;;;;;;5059564;28;19928;-66
2022/05/08 09:38:19;;;;;;;;;;;17.60;99.90;;;;;;5062955;28;20124;-65
2022/05/08 09:40:46;;;;;;;;;;;17.60;99.90;;;;;;5063418;28;19920;-66
2022/05/08 09:43:28;;;;;;;;;;;17.60;99.90;;;;;;5060197;28;19928;-65
2022/05/08 09:45:59;;;;;;;;;;;17.70;99.90;;;;;;5059159;28;19956;-66
2022/05/08 09:48:27;;;;;;;;;;;17.90;99.90;;;;;;5060714;28;19921;-66
2022/05/08 09:50:56;;;;;;;;;;;18.00;99.90;;;;;;5051882;28;19920;-66
2022/05/08 09:53:24;;;;;;;;;;;18.00;99.90;;;;;;5069924;28;19920;-66
2022/05/08 09:55:52;;;;;;;;;;;18.10;99.90;;;;;;5074453;28;19967;-66
2022/05/08 09:58:18;;;;;;;;;;;18.20;99.90;;;;;;5063888;28;19927;-65
2022/05/08 10:00:46;;;;;;;;;;;18.30;99.90;;;;;;5063069;28;19921;-66
2022/05/08 10:03:16;;;;;;;;;;;18.40;99.90;;;;;;5070551;28;20311;-65
2022/05/08 10:05:43;;;;;;;;;;;18.40;99.90;;;;;;5075834;28;20000;-65
2022/05/08 10:08:10;;;;;;;;;;;18.60;99.90;;;;;;5063482;28;19920;-66
2022/05/08 10:13:57;;;;;;;;;;;18.80;99.90;;;;;;5083302;28;20261;-65
2022/05/08 10:16:42;;;;;;;;;;;19.00;99.90;;;;;;5080129;28;19958;-66
2022/05/08 10:19:28;;;;;;;;;;;19.20;99.90;;;;;;5083140;28;20036;-66
2022/05/08 10:22:06;;;;;;;;;;;19.40;99.90;;;;;;5083409;28;19921;-65
2022/05/08 10:24:35;;;;;;;;;;;19.50;99.90;;;;;;5082823;28;19987;-65
2022/05/08 10:27:11;;;;;;;;;;;19.60;99.90;;;;;;5082683;28;19942;-66
2022/05/08 10:29:38;;;;;;;;;;;19.90;99.90;;;;;;5083261;28;19921;-66
2022/05/08 10:32:06;;;;;;;;;;;20.10;99.90;;;;;;5080740;28;19928;-64
2022/05/08 10:34:33;;;;;;;;;;;20.20;99.90;;;;;;5082992;28;19959;-65
2022/05/08 10:37:19;;;;;;;;;;;20.20;99.90;;;;;;5075958;28;19920;-66
2022/05/08 10:39:47;;;;;;;;;;;20.20;99.90;;;;;;5071768;28;20151;-66
2022/05/08 10:42:33;;;;;;;;;;;20.20;99.90;;;;;;5074939;28;20216;-65
2022/05/08 10:45:01;;;;;;;;;;;20.10;99.90;;;;;;5082798;28;19991;-66
2022/05/08 10:47:41;;;;;;;;;;;20.10;99.90;;;;;;5081488;28;19925;-64
2022/05/08 10:50:08;;;;;;;;;;;20.00;99.90;;;;;;5083279;28;19974;-63
2022/05/08 10:52:38;;;;;;;;;;;19.90;99.90;;;;;;5082971;28;19920;-63
2022/05/08 10:55:08;;;;;;;;;;;20.00;99.90;;;;;;5083085;28;19924;-64
2022/05/08 10:57:35;;;;;;;;;;;20.00;99.90;;;;;;5082973;28;19928;-63
2022/05/08 11:00:03;;;;;;;;;;;20.10;99.90;;;;;;5081532;28;20225;-63
2022/05/08 11:02:39;;;;;;;;;;;20.10;99.90;;;;;;5082611;28;19927;-63
2022/05/08 11:05:06;;;;;;;;;;;20.10;99.90;;;;;;5078257;22;19921;-65
2022/05/08 11:07:33;;;;;;;;;;;20.20;99.90;;;;;;5070504;28;19921;-67
2022/05/08 11:10:00;;;;;;;;;;;20.30;99.90;;;;;;5079053;28;19924;-67
2022/05/08 11:12:28;;;;;;;;;;;20.50;99.90;;;;;;5063254;28;20115;-66
2022/05/08 11:15:07;;;;;;;;;;;20.60;99.90;;;;;;5072427;28;19929;-66
2022/05/08 11:17:33;;;;;;;;;;;20.70;99.90;;;;;;5082609;28;19983;-67
2022/05/08 11:20:00;;;;;;;;;;;20.80;99.90;;;;;;5082416;28;20310;-68
2022/05/08 11:22:26;;;;;;;;;;;20.90;99.90;;;;;;5082507;28;19987;-67
2022/05/08 11:25:10;;;;;;;;;;;21.20;99.90;;;;;;5082638;28;19928;-67
2022/05/08 11:27:38;;;;;;;;;;;21.40;99.90;;;;;;5085780;28;19924;-68
2022/05/08 11:30:06;;;;;;;;;;;21.70;99.90;;;;;;5084174;28;19927;-64
2022/05/08 11:38:15;;;;;;;;;;;22.30;99.90;;;;;;5086494;28;19924;-64
2022/05/08 11:40:42;;;;;;;;;;;22.40;99.90;;;;;;5086186;28;20203;-64
2022/05/08 11:43:10;;;;;;;;;;;22.50;99.90;;;;;;5085856;28;19949;-64
2022/05/08 11:45:36;;;;;;;;;;;22.70;99.90;;;;;;5081601;28;19928;-65
2022/05/08 11:48:03;;;;;;;;;;;22.70;99.90;;;;;;5085364;28;19920;-65
2022/05/08 11:50:31;;;;;;;;;;;22.80;99.90;;;;;;5085836;28;19921;-66
2022/05/08 11:53:02;;;;;;;;;;;22.80;99.90;;;;;;5085930;28;19924;-65
2022/05/08 11:55:42;;;;;;;;;;;23.00;99.90;;;;;;5084504;28;20293;-65
2022/05/08 11:58:10;;;;;;;;;;;23.20;99.90;;;;;;5085057;28;19920;-65
2022/05/08 12:00:37;;;;;;;;;;;23.30;99.90;;;;;;5074409;28;20244;-65
2022/05/08 12:03:03;;;;;;;;;;;23.30;99.90;;;;;;5074458;28;19928;-65
2022/05/08 12:05:30;;;;;;;;;;;23.40;99.90;;;;;;5072377;28;20131;-64
2022/05/08 12:07:57;;;;;;;;;;;23.40;99.10;;;;;;5076377;28;19928;-64
2022/05/08 12:10:36;;;;;;;;;;;23.20;97.90;;;;;;5071737;28;19927;-64
2022/05/08 12:13:06;;;;;;;;;;;22.80;97.50;;;;;;5081893;28;19920;-64
2022/05/08 12:15:34;;;;;;;;;;;22.50;98.30;;;;;;5084412;28;19927;-64
2022/05/08 12:18:02;;;;;;;;;;;22.40;98.70;;;;;;5084551;28;20204;-64
2022/05/08 12:20:34;;;;;;;;;;;22.10;99.30;;;;;;5084425;28;20421;-64
2022/05/08 12:23:01;;;;;;;;;;;21.80;99.50;;;;;;5073665;28;19938;-64
2022/05/08 12:25:28;;;;;;;;;;;21.60;99.80;;;;;;5074615;28;20313;-65
2022/05/08 12:27:55;;;;;;;;;;;21.50;98.70;;;;;;5075928;28;20261;-64
2022/05/08 12:30:21;;;;;;;;;;;21.50;99.70;;;;;;5074563;28;19924;-65
2022/05/08 12:32:50;;;;;;;;;;;21.60;99.90;;;;;;5069642;28;19920;-65
2022/05/08 12:35:16;;;;;;;;;;;21.60;99.20;;;;;;5074707;28;19920;-65
2022/05/08 12:37:43;;;;;;;;;;;21.70;99.90;;;;;;5071710;28;19920;-65
2022/05/08 12:40:10;;;;;;;;;;;21.80;99.40;;;;;;5074204;28;19943;-65
2022/05/08 12:42:37;;;;;;;;;;;22.00;99.90;;;;;;5076588;28;20119;-64
2022/05/08 12:45:04;;;;;;;;;;;22.10;99.80;;;;;;5074758;28;19924;-65
2022/05/08 12:47:30;;;;;;;;;;;22.40;99.90;;;;;;5070683;28;19928;-64
2022/05/08 12:49:58;;;;;;;;;;;22.80;99.50;;;;;;5077695;28;19927;-65
2022/05/08 12:52:25;;;;;;;;;;;23.30;99.90;;;;;;5074860;28;19927;-65
2022/05/08 12:54:51;;;;;;;;;;;23.60;99.20;;;;;;5079422;28;19958;-64
2022/05/08 12:59:59;;;;;;;;;;;24.00;98.80;;;;;;5075520;28;19924;-65
2022/05/08 13:02:26;;;;;;;;;;;24.40;97.70;;;;;;5069929;28;20195;-65
2022/05/08 13:04:53;;;;;;;;;;;24.60;99.50;;;;;;5071016;28;19928;-65
2022/05/08 13:07:22;;;;;;;;;;;24.80;97.10;;;;;;5073697;28;19921;-65
2022/05/08 13:09:49;;;;;;;;;;;24.70;96.30;;;;;;5070104;28;19921;-64
2022/05/08 13:12:16;;;;;;;;;;;24.50;96.20;;;;;;5071346;28;19995;-65
2022/05/08 13:14:42;;;;;;;;;;;24.10;96.40;;;;;;5073131;28;19929;-65
2022/05/08 13:17:10;;;;;;;;;;;23.60;95.70;;;;;;5074872;28;19927;-65
2022/05/08 13:19:37;;;;;;;;;;;23.30;96.50;;;;;;5076034;28;20089;-65
2022/05/08 13:22:05;;;;;;;;;;;23.20;95.80;;;;;;5077526;28;20170;-65
2022/05/08 13:24:33;;;;;;;;;;;23.10;97.50;;;;;;5068996;28;19959;-65
2022/05/08 13:27:01;;;;;;;;;;;23.10;98.00;;;;;;5063152;28;20123;-64
2022/05/08 13:29:30;;;;;;;;;;;23.20;96.00;;;;;;5066200;28;19956;-65
2022/05/08 13:31:56;;;;;;;;;;;23.10;96.00;;;;;;5071666;28;20111;-65
2022/05/08 13:34:25;;;;;;;;;;;23.10;96.40;;;;;;5069472;28;19927;-65
2022/05/08 13:36:51;;;;;;;;;;;23.20;96.20;;;;;;5076118;28;20138;-65
2022/05/08 13:39:18;;;;;;;;;;;23.30;96.10;;;;;;5071841;28;19927;-64
2022/05/08 13:41:47;;;;;;;;;;;23.40;97.00;;;;;;5068805;28;19959;-65
2022/05/08 13:44:13;;;;;;;;;;;23.60;97.20;;;;;;5071437;28;19983;-65
2022/05/08 13:46:40;;;;;;;;;;;23.80;97.00;;;;;;5072879;28;19927;-65
2022/05/08 13:49:08;;;;;;;;;;;24.00;97.10;;;;;;5075924;28;19921;-65
2022/05/08 13:51:35;;;;;;;;;;;24.10;96.70;;;;;;5070993;28;20111;-65
2022/05/08 13:54:02;;;;;;;;;;;24.20;96.40;;;;;;5068843;28;19956;-65
2022/05/08 13:56:29;;;;;;;;;;;24.20;95.20;;;;;;5071501;28;20143;-66
2022/05/08 13:58:57;;;;;;;;;;;24.00;94.80;;;;;;5070229;28;19921;-65
2022/05/08 14:01:23;;;;;;;;;;;23.90;95.60;;;;;;5074317;28;19920;-65
2022/05/08 14:03:50;;;;;;;;;;;23.90;96.10;;;;;;5074022;28;19928;-66
2022/05/08 14:06:16;;;;;;;;;;;24.00;95.30;;;;;;5068018;28;19920;-64
2022/05/08 14:08:43;;;;;;;;;;;24.10;94.30;;;;;;5074993;28;19936;-65
2022/05/08 14:11:10;;;;;;;;;;;24.10;94.10;;;;;;5072005;28;19964;-65
2022/05/08 14:13:40;;;;;;;;;;;24.20;95.80;;;;;;5069993;28;19966;-64
2022/05/08 14:16:08;;;;;;;;;;;24.20;95.50;;;;;;5062388;28;20128;-65
2022/05/08 14:18:36;;;;;;;;;;;24.30;95.20;;;;;;5051575;28;19988;-65
2022/05/08 14:21:02;;;;;;;;;;;24.30;95.70;;;;;;5061964;28;19963;-64
2022/05/08 14:23:29;;;;;;;;;;;24.30;95.70;;;;;;5062587;28;20108;-64
2022/05/08 14:25:55;;;;;;;;;;;24.30;95.90;;;;;;5062144;28;19921;-64
2022/05/08 14:28:22;;;;;;;;;;;24.20;95.50;;;;;;5062444;28;20159;-63
2022/05/08 14:36:16;;;;;;;;;;;24.50;94.70;;;;;;5062129;28;19963;-64
2022/05/08 14:38:43;;;;;;;;;;;24.60;95.00;;;;;;5063268;28;19921;-64
2022/05/08 14:41:10;;;;;;;;;;;24.60;93.20;;;;;;5071106;28;19921;-63
2022/05/08 14:43:38;;;;;;;;;;;24.40;92.10;;;;;;5059390;28;19920;-64
2022/05/08 14:46:05;;;;;;;;;;;24.30;93.90;;;;;;5069424;28;19942;-63
2022/05/08 14:48:33;;;;;;;;;;;24.30;93.70;;;;;;5062976;28;19966;-63
2022/05/08 14:50:59;;;;;;;;;;;24.40;93.30;;;;;;5063272;28;19921;-64
2022/05/08 14:53:26;;;;;;;;;;;24.60;94.80;;;;;;5064880;28;19928;-64
2022/05/08 14:55:53;;;;;;;;;;;24.80;93.20;;;;;;5082089;28;19921;-64